createdAt,value
2017-09-09T00:02:04.971Z,4.23
2017-09-09T00:04:32.523Z,3.83
2017-09-09T00:07:00.051Z,4.00
2017-09-09T00:09:27.581Z,3.93
2017-09-09T00:11:55.123Z,3.97
2017-09-09T00:14:22.611Z,4.13
2017-09-09T00:16:50.137Z,5.07
2017-09-09T00:19:17.667Z,3.33
2017-09-09T00:21:45.187Z,4.40
2017-09-09T00:24:12.700Z,3.60
2017-09-09T00:26:40.259Z,3.83
2017-09-09T00:29:07.792Z,3.77
2017-09-09T00:31:35.312Z,3.50
2017-09-09T00:34:03.597Z,3.23
2017-09-09T00:36:31.879Z,3.77
2017-09-09T00:38:59.389Z,3.40
2017-09-09T00:41:27.126Z,4.03
2017-09-09T00:43:54.661Z,3.27
2017-09-09T00:46:22.173Z,3.83
2017-09-09T00:48:49.709Z,3.93
2017-09-09T00:51:17.212Z,3.63
2017-09-09T00:53:45.502Z,4.30
2017-09-09T00:56:13.024Z,5.00
2017-09-09T00:58:40.552Z,4.20
2017-09-09T01:01:08.505Z,6.80
2017-09-09T01:03:36.019Z,4.77
2017-09-09T01:06:03.608Z,6.47
2017-09-09T01:08:31.147Z,5.30
2017-09-09T01:10:58.650Z,5.90
2017-09-09T01:13:26.149Z,6.50
2017-09-09T01:15:53.728Z,6.60
2017-09-09T01:18:22.036Z,6.60
2017-09-09T01:20:49.560Z,7.70
2017-09-09T01:23:17.084Z,7.23
2017-09-09T01:25:44.599Z,6.90
2017-09-09T01:28:12.892Z,7.93
2017-09-09T01:30:40.409Z,7.63
2017-09-09T01:33:07.922Z,6.53
2017-09-09T01:35:35.429Z,7.73
2017-09-09T01:38:02.945Z,6.63
2017-09-09T01:40:30.473Z,8.27
2017-09-09T01:42:58.752Z,7.40
2017-09-09T01:45:26.279Z,7.47
2017-09-09T01:47:53.811Z,6.50
2017-09-09T01:50:21.331Z,7.90
2017-09-09T01:52:48.858Z,6.90
2017-09-09T01:55:16.426Z,8.07
2017-09-09T01:57:43.967Z,6.50
2017-09-09T02:00:11.473Z,6.63
2017-09-09T02:02:39.004Z,7.60
2017-09-09T02:05:06.524Z,7.63
2017-09-09T02:07:34.054Z,7.37
2017-09-09T02:10:01.560Z,7.13
2017-09-09T02:12:29.068Z,7.53
2017-09-09T02:14:56.617Z,8.40
2017-09-09T02:17:24.895Z,7.67
2017-09-09T02:19:53.149Z,7.10
2017-09-09T02:22:20.672Z,6.37
2017-09-09T02:24:48.187Z,7.00
2017-09-09T02:27:15.714Z,6.20
2017-09-09T02:29:43.265Z,5.53
2017-09-09T02:32:10.777Z,5.57
2017-09-09T02:34:38.328Z,6.40
2017-09-09T02:37:06.816Z,6.47
2017-09-09T02:39:34.375Z,5.63
2017-09-09T02:42:01.874Z,6.27
2017-09-09T02:44:29.428Z,6.57
2017-09-09T02:46:56.926Z,6.70
2017-09-09T02:49:25.197Z,6.33
2017-09-09T02:51:53.504Z,7.43
2017-09-09T02:54:21.005Z,7.20
2017-09-09T02:56:48.509Z,6.60
2017-09-09T02:59:16.047Z,6.73
2017-09-09T03:01:43.545Z,7.90
2017-09-09T03:04:11.052Z,7.17
2017-09-09T03:06:38.586Z,7.70
2017-09-09T03:09:06.085Z,6.73
2017-09-09T03:11:33.595Z,7.20
2017-09-09T03:14:01.128Z,7.40
2017-09-09T03:16:28.647Z,7.33
2017-09-09T03:18:56.154Z,6.80
2017-09-09T03:21:23.686Z,7.40
2017-09-09T03:23:51.960Z,7.10
2017-09-09T03:26:20.245Z,6.30
2017-09-09T03:28:48.623Z,6.73
2017-09-09T03:31:16.932Z,7.70
2017-09-09T03:33:44.444Z,6.80
2017-09-09T03:36:12.733Z,6.73
2017-09-09T03:38:40.250Z,8.00
2017-09-09T03:41:07.769Z,6.53
2017-09-09T03:43:35.299Z,6.80
2017-09-09T03:46:03.588Z,6.37
2017-09-09T03:48:31.859Z,6.60
2017-09-09T03:51:00.141Z,6.07
2017-09-09T03:53:28.436Z,6.10
2017-09-09T03:55:55.952Z,5.87
2017-09-09T03:58:23.506Z,5.77
2017-09-09T04:00:51.014Z,5.57
2017-09-09T04:03:18.526Z,6.43
2017-09-09T04:05:46.050Z,6.30
2017-09-09T04:08:13.557Z,7.40
2017-09-09T04:10:41.091Z,6.30
2017-09-09T04:13:08.629Z,6.53
2017-09-09T04:15:36.133Z,6.73
2017-09-09T04:18:03.655Z,7.83
2017-09-09T04:20:31.205Z,7.60
2017-09-09T04:22:58.711Z,8.40
2017-09-09T04:25:26.221Z,8.37
2017-09-09T04:27:53.749Z,9.23
2017-09-09T04:30:22.040Z,8.43
2017-09-09T04:32:49.572Z,9.37
2017-09-09T04:35:17.105Z,10.90
2017-09-09T04:37:44.600Z,8.87
2017-09-09T04:40:12.875Z,9.80
2017-09-09T04:42:40.419Z,9.10
2017-09-09T04:45:08.688Z,9.00
2017-09-09T04:47:36.191Z,9.50
2017-09-09T04:50:03.710Z,9.30
2017-09-09T04:52:31.984Z,9.73
2017-09-09T04:55:00.276Z,10.73
2017-09-09T04:57:28.592Z,10.27
2017-09-09T04:59:56.109Z,10.87
2017-09-09T05:02:24.382Z,11.90
2017-09-09T05:04:52.693Z,12.87
2017-09-09T05:07:20.215Z,12.13
2017-09-09T05:09:48.488Z,11.87
2017-09-09T05:12:16.805Z,11.60
2017-09-09T05:14:44.313Z,13.63
2017-09-09T05:17:11.824Z,13.33
2017-09-09T05:19:39.368Z,13.20
2017-09-09T05:22:06.970Z,13.87
2017-09-09T05:24:34.476Z,9.50
2017-09-09T05:27:02.765Z,10.50
2017-09-09T05:29:30.283Z,8.30
2017-09-09T05:31:57.802Z,7.60
2017-09-09T05:34:25.567Z,6.93
2017-09-09T05:36:53.088Z,6.87
2017-09-09T05:39:21.383Z,7.50
2017-09-09T05:41:48.908Z,6.80
2017-09-09T05:44:16.428Z,6.63
2017-09-09T05:46:43.940Z,9.60
2017-09-09T05:49:12.440Z,10.60
2017-09-09T05:51:39.963Z,13.50
2017-09-09T05:54:07.490Z,13.00
2017-09-09T05:56:35.021Z,13.00
2017-09-09T05:59:03.280Z,14.50
2017-09-09T06:01:31.556Z,14.40
2017-09-09T06:04:00.074Z,14.80
2017-09-09T06:06:27.607Z,13.00
2017-09-09T06:08:55.135Z,14.43
2017-09-09T06:11:22.701Z,9.37
2017-09-09T06:13:50.980Z,8.23
2017-09-09T06:16:19.279Z,8.70
2017-09-09T06:18:46.816Z,8.00
2017-09-09T06:21:15.107Z,7.40
2017-09-09T06:23:42.639Z,7.60
2017-09-09T06:26:10.176Z,8.50
2017-09-09T06:28:37.695Z,9.00
2017-09-09T06:31:05.201Z,8.40
2017-09-09T06:33:32.720Z,8.93
2017-09-09T06:36:00.233Z,6.90
2017-09-09T06:38:27.731Z,5.83
2017-09-09T06:40:55.263Z,7.03
2017-09-09T06:43:22.763Z,6.57
2017-09-09T06:45:50.281Z,5.80
2017-09-09T06:48:18.884Z,5.30
2017-09-09T06:50:47.164Z,5.20
2017-09-09T06:53:14.688Z,4.43
2017-09-09T06:55:42.234Z,4.30
2017-09-09T06:58:09.740Z,4.80
2017-09-09T07:00:37.241Z,4.40
2017-09-09T07:03:04.792Z,3.60
2017-09-09T07:05:32.309Z,4.30
2017-09-09T07:08:00.599Z,4.60
2017-09-09T07:10:28.190Z,3.60
2017-09-09T07:12:55.720Z,5.23
2017-09-09T07:15:23.248Z,5.17
2017-09-09T07:17:51.541Z,4.90
2017-09-09T07:20:19.081Z,5.30
2017-09-09T07:22:46.601Z,6.47
2017-09-09T07:25:14.194Z,5.93
2017-09-09T07:27:41.732Z,6.00
2017-09-09T07:30:09.270Z,6.40
2017-09-09T07:32:36.804Z,6.60
2017-09-09T07:35:04.304Z,6.73
2017-09-09T07:37:31.836Z,7.37
2017-09-09T07:39:59.387Z,6.20
2017-09-09T07:42:26.908Z,6.73
2017-09-09T07:44:54.422Z,8.10
2017-09-09T07:47:21.956Z,6.40
2017-09-09T07:49:49.471Z,7.30
2017-09-09T07:52:16.973Z,7.50
2017-09-09T07:54:45.273Z,8.10
2017-09-09T07:57:12.794Z,8.27
2017-09-09T07:59:40.296Z,10.03
2017-09-09T08:02:07.840Z,9.03
2017-09-09T08:04:35.336Z,9.53
2017-09-09T08:07:03.632Z,9.30
2017-09-09T08:09:31.159Z,10.00
2017-09-09T08:11:58.746Z,7.30
2017-09-09T08:14:26.292Z,8.10
2017-09-09T08:16:53.843Z,8.53
2017-09-09T08:19:21.348Z,8.10
2017-09-09T08:21:49.625Z,9.00
2017-09-09T08:24:17.942Z,7.33
2017-09-09T08:26:45.464Z,8.60
2017-09-09T08:29:12.991Z,8.30
2017-09-09T08:31:40.537Z,9.93
2017-09-09T08:34:08.054Z,9.50
2017-09-09T08:36:35.567Z,9.43
2017-09-09T08:39:03.157Z,9.03
2017-09-09T08:41:31.496Z,11.13
2017-09-09T08:43:59.033Z,9.93
2017-09-09T08:46:26.681Z,9.10
2017-09-09T08:48:54.309Z,11.47
2017-09-09T08:51:22.038Z,9.70
2017-09-09T08:53:49.662Z,10.77
2017-09-09T08:56:17.169Z,10.80
2017-09-09T08:58:44.699Z,12.47
2017-09-09T09:01:12.367Z,10.60
2017-09-09T09:03:40.028Z,9.60
2017-09-09T09:06:07.745Z,8.90
2017-09-09T09:08:35.481Z,9.60
2017-09-09T09:11:03.113Z,8.30
2017-09-09T09:13:30.778Z,9.10
2017-09-09T09:15:58.397Z,9.47
2017-09-09T09:18:26.130Z,10.07
2017-09-09T09:20:54.715Z,8.80
2017-09-09T09:23:22.674Z,9.40
2017-09-09T09:25:50.366Z,9.80
2017-09-09T09:28:18.104Z,9.00
2017-09-09T09:30:45.888Z,6.80
2017-09-09T09:33:13.628Z,6.40
2017-09-09T09:35:42.087Z,5.20
2017-09-09T09:38:09.825Z,4.50
2017-09-09T09:40:37.541Z,4.37
2017-09-09T09:43:05.295Z,3.40
2017-09-09T09:45:33.028Z,2.90
2017-09-09T09:48:00.896Z,3.47
2017-09-09T09:50:28.824Z,2.90
2017-09-09T09:52:56.620Z,4.30
2017-09-09T09:55:24.967Z,4.50
2017-09-09T09:57:52.718Z,5.27
2017-09-09T10:00:21.388Z,7.40
2017-09-09T10:02:49.214Z,6.60
2017-09-09T10:05:17.080Z,7.93
2017-09-09T10:07:45.003Z,6.10
2017-09-09T10:10:12.895Z,7.10
2017-09-09T10:12:40.686Z,8.20
2017-09-09T10:15:08.526Z,8.37
2017-09-09T10:17:36.344Z,8.30
2017-09-09T10:20:04.894Z,7.30
2017-09-09T10:22:32.731Z,7.23
2017-09-09T10:25:00.450Z,8.67
2017-09-09T10:27:28.320Z,9.20
2017-09-09T10:29:56.354Z,10.40
2017-09-09T10:32:24.873Z,11.00
2017-09-09T10:34:53.146Z,10.13
2017-09-09T10:37:21.834Z,12.17
2017-09-09T10:39:50.600Z,10.73
2017-09-09T10:42:18.490Z,10.20
2017-09-09T10:44:46.765Z,10.40
2017-09-09T10:47:14.667Z,11.00
2017-09-09T10:49:42.908Z,13.20
2017-09-09T10:52:12.208Z,15.30
2017-09-09T10:54:40.797Z,15.80
2017-09-09T10:57:10.031Z,17.90
2017-09-09T10:59:43.754Z,12.37
2017-09-09T11:02:12.789Z,10.03
2017-09-09T11:04:40.819Z,9.10
2017-09-09T11:07:08.803Z,9.27
2017-09-09T11:09:37.313Z,7.77
2017-09-09T11:12:05.588Z,9.57
2017-09-09T11:14:33.380Z,13.00
2017-09-09T11:17:02.026Z,8.33
2017-09-09T11:19:29.972Z,8.10
2017-09-09T11:21:57.725Z,8.20
2017-09-09T11:24:25.640Z,10.10
2017-09-09T11:26:54.512Z,11.37
2017-09-09T11:29:23.212Z,13.50
2017-09-09T11:31:51.902Z,12.77
2017-09-09T11:34:19.964Z,9.90
2017-09-09T11:36:48.033Z,7.10
2017-09-09T11:39:16.136Z,8.63
2017-09-09T11:41:44.318Z,8.90
2017-09-09T11:44:12.184Z,12.00
2017-09-09T11:46:40.021Z,13.50
2017-09-09T11:49:08.718Z,14.80
2017-09-09T11:51:36.697Z,14.30
2017-09-09T11:54:05.261Z,13.63
2017-09-09T11:56:33.085Z,15.40
2017-09-09T11:59:00.940Z,17.30
2017-09-09T12:01:29.062Z,12.73
2017-09-09T12:03:56.925Z,9.93
2017-09-09T12:06:25.645Z,9.97
2017-09-09T12:08:53.464Z,10.80
2017-09-09T12:11:21.207Z,12.80
2017-09-09T12:13:49.048Z,13.00
2017-09-09T12:16:17.558Z,14.97
2017-09-09T12:18:45.270Z,13.83
2017-09-09T12:21:12.899Z,13.73
2017-09-09T12:23:40.427Z,14.67
2017-09-09T12:26:07.947Z,11.93
2017-09-09T12:28:35.472Z,10.93
2017-09-09T12:31:03.751Z,8.07
2017-09-09T12:33:32.207Z,5.90
2017-09-09T12:36:02.398Z,4.43
2017-09-09T12:38:29.898Z,6.27
2017-09-09T12:40:58.184Z,7.70
2017-09-09T12:43:26.508Z,8.00
2017-09-09T12:45:54.019Z,6.17
2017-09-09T12:48:22.299Z,5.73
2017-09-09T12:50:49.818Z,5.40
2017-09-09T12:53:17.375Z,3.80
2017-09-09T12:55:44.872Z,3.30
2017-09-09T12:58:13.171Z,4.23
2017-09-09T13:00:40.680Z,4.50
2017-09-09T13:03:08.240Z,4.23
2017-09-09T13:05:35.773Z,3.87
2017-09-09T13:08:03.287Z,3.43
2017-09-09T13:10:31.580Z,4.13
2017-09-09T13:12:59.135Z,3.80
2017-09-09T13:15:26.640Z,4.77
2017-09-09T13:17:54.137Z,6.23
2017-09-09T13:20:22.623Z,6.23
2017-09-09T13:22:50.900Z,6.00
2017-09-09T13:25:19.174Z,6.60
2017-09-09T13:27:47.486Z,6.00
2017-09-09T13:30:14.996Z,7.17
2017-09-09T13:32:43.289Z,5.53
2017-09-09T13:35:11.586Z,4.03
2017-09-09T13:37:39.182Z,7.23
2017-09-09T13:40:06.689Z,3.30
2017-09-09T13:42:34.218Z,3.80
2017-09-09T13:45:01.736Z,3.53
2017-09-09T13:47:29.239Z,3.90
2017-09-09T13:49:56.779Z,4.20
2017-09-09T13:52:24.360Z,3.40
2017-09-09T13:54:51.872Z,3.90
2017-09-09T13:57:19.418Z,5.30
2017-09-09T13:59:46.949Z,6.80
2017-09-09T14:02:15.469Z,2.60
2017-09-09T14:04:42.976Z,2.10
2017-09-09T14:07:10.470Z,2.43
2017-09-09T14:09:37.992Z,2.30
2017-09-09T14:12:05.505Z,2.33
2017-09-09T14:14:33.025Z,2.40
2017-09-09T14:17:01.325Z,2.83
2017-09-09T14:19:28.839Z,2.10
2017-09-09T14:21:56.337Z,2.60
2017-09-09T14:24:23.904Z,3.70
2017-09-09T14:26:51.423Z,3.57
2017-09-09T14:29:18.913Z,3.57
2017-09-09T14:31:47.213Z,4.53
2017-09-09T14:34:14.759Z,3.10
2017-09-09T14:36:42.278Z,3.27
2017-09-09T14:39:09.841Z,2.40
2017-09-09T14:41:38.133Z,2.50
2017-09-09T14:44:06.408Z,2.70
2017-09-09T14:46:33.956Z,2.47
2017-09-09T14:49:02.244Z,2.43
2017-09-09T14:51:30.527Z,3.23
2017-09-09T14:53:58.841Z,2.07
2017-09-09T14:56:26.360Z,1.80
2017-09-09T14:58:54.650Z,2.57
2017-09-09T15:01:22.152Z,3.93
2017-09-09T15:03:49.694Z,4.57
2017-09-09T15:06:17.235Z,5.13
2017-09-09T15:08:44.737Z,3.00
2017-09-09T15:11:12.308Z,5.57
2017-09-09T15:13:39.835Z,4.17
2017-09-09T15:16:07.361Z,4.50
2017-09-09T15:18:34.867Z,3.90
2017-09-09T15:21:02.408Z,3.20
2017-09-09T17:50:34.204Z,2.35
2017-09-09T17:53:52.008Z,2.20
2017-09-09T17:56:19.524Z,2.00
2017-09-09T17:58:47.020Z,2.90
2017-09-09T18:01:14.581Z,2.20
2017-09-09T18:03:42.099Z,2.67
2017-09-09T18:06:09.628Z,2.63
2017-09-09T18:08:37.188Z,2.90
2017-09-09T18:11:04.708Z,2.80
2017-09-09T18:13:32.229Z,3.50
2017-09-09T18:15:59.757Z,4.07
2017-09-09T18:18:27.265Z,5.13
2017-09-09T18:20:54.816Z,3.07
2017-09-09T18:23:22.344Z,3.20
2017-09-09T18:25:50.637Z,3.33
2017-09-09T18:28:18.956Z,2.90
2017-09-09T18:30:46.522Z,2.33
2017-09-09T18:33:14.058Z,3.37
2017-09-09T18:35:41.603Z,2.60
2017-09-09T18:38:09.135Z,2.73
2017-09-09T18:40:36.658Z,2.53
2017-09-09T18:43:04.194Z,3.43
2017-09-09T18:45:31.733Z,2.60
2017-09-09T18:48:00.025Z,2.73
2017-09-09T18:50:27.515Z,3.20
2017-09-09T18:52:55.065Z,3.87
2017-09-09T18:55:22.591Z,3.40
2017-09-09T18:57:50.881Z,3.23
2017-09-09T19:00:18.433Z,3.20
2017-09-09T19:02:46.704Z,3.80
2017-09-09T19:05:14.987Z,4.00
2017-09-09T19:07:42.517Z,3.53
2017-09-09T19:10:10.036Z,4.13
2017-09-09T19:12:37.573Z,3.77
2017-09-09T19:15:05.114Z,4.40
2017-09-09T19:17:32.650Z,6.80
2017-09-09T19:20:00.215Z,6.40
2017-09-09T19:22:28.511Z,5.50
2017-09-09T19:24:56.055Z,3.27
2017-09-09T19:27:24.331Z,2.43
2017-09-09T19:29:52.601Z,2.20
2017-09-09T19:32:20.157Z,1.80
2017-09-09T19:34:47.680Z,4.63
2017-09-09T19:37:15.208Z,4.50
2017-09-09T19:39:42.760Z,3.20
2017-09-09T19:42:10.267Z,5.57
2017-09-09T19:44:37.788Z,3.23
2017-09-09T19:47:05.341Z,2.60
2017-09-09T19:49:32.870Z,3.70
2017-09-09T19:52:00.377Z,3.30
2017-09-09T19:54:27.920Z,3.60
2017-09-09T19:56:56.191Z,3.90
2017-09-09T19:59:23.701Z,3.77
2017-09-09T20:01:51.223Z,3.67
2017-09-09T20:04:18.917Z,3.90
2017-09-09T20:06:46.434Z,3.50
2017-09-09T20:09:14.030Z,3.33
2017-09-09T20:11:41.647Z,3.40
2017-09-09T20:14:09.205Z,3.70
2017-09-09T20:16:37.967Z,3.83
2017-09-09T20:19:05.459Z,5.10
2017-09-09T20:21:32.972Z,3.90
2017-09-09T20:24:00.507Z,5.97
2017-09-09T20:26:28.017Z,5.50
2017-09-09T20:28:56.289Z,5.03
2017-09-09T20:31:23.825Z,4.47
2017-09-09T20:33:51.332Z,5.50
2017-09-09T20:36:18.851Z,3.07
2017-09-09T20:38:46.366Z,3.80
2017-09-09T20:41:13.884Z,2.50
2017-09-09T20:43:42.158Z,3.33
2017-09-09T20:46:09.722Z,4.20
2017-09-09T20:48:37.994Z,5.83
2017-09-09T20:51:05.506Z,4.60
2017-09-09T20:53:33.020Z,4.83
2017-09-09T20:56:01.315Z,3.77
2017-09-09T20:58:28.836Z,4.43
2017-09-09T21:00:56.375Z,6.10
2017-09-09T21:03:23.887Z,6.30
2017-09-09T21:05:51.396Z,5.23
2017-09-09T21:08:18.939Z,8.90
2017-09-09T21:10:46.457Z,4.80
2017-09-09T21:13:14.739Z,4.10
2017-09-09T21:15:43.049Z,4.50
2017-09-09T21:18:10.556Z,4.40
2017-09-09T21:20:38.454Z,4.73
2017-09-09T21:23:06.040Z,5.93
2017-09-09T21:25:33.572Z,7.90
2017-09-09T21:28:01.101Z,7.20
2017-09-09T21:30:29.419Z,7.97
2017-09-09T21:32:56.929Z,8.00
2017-09-09T21:35:24.512Z,7.70
2017-09-09T21:37:52.804Z,9.77
2017-09-09T21:40:20.465Z,8.47
2017-09-09T21:42:47.981Z,8.90
2017-09-09T21:45:15.609Z,8.90
2017-09-09T21:47:43.164Z,9.07
2017-09-09T21:50:10.694Z,10.10
2017-09-09T21:52:38.970Z,8.07
2017-09-09T21:55:06.503Z,7.77
2017-09-09T21:57:34.000Z,6.90
2017-09-09T22:00:01.524Z,6.37
2017-09-09T22:02:29.056Z,6.63
2017-09-09T22:04:56.555Z,6.70
2017-09-09T22:07:24.076Z,6.67
2017-09-09T22:09:51.638Z,6.10
2017-09-09T22:12:19.155Z,6.30
2017-09-09T22:14:46.664Z,7.60
2017-09-09T22:17:14.197Z,6.37
2017-09-09T22:19:41.725Z,8.03
2017-09-09T22:22:09.258Z,6.30
2017-09-09T22:24:37.896Z,7.00
2017-09-09T22:27:05.418Z,7.37
2017-09-09T22:29:33.713Z,6.17
2017-09-09T22:32:01.273Z,6.90
2017-09-09T22:34:28.785Z,7.13
2017-09-09T22:36:56.293Z,7.77
2017-09-09T22:39:23.827Z,8.20
2017-09-09T22:41:52.109Z,7.43
2017-09-09T22:44:19.634Z,8.47
2017-09-09T22:46:47.194Z,8.90
2017-09-09T22:51:48.931Z,9.10
2017-09-09T22:54:16.598Z,8.43
2017-09-09T22:56:44.116Z,9.40
2017-09-09T22:59:12.440Z,9.43
2017-09-09T23:01:39.990Z,7.80
2017-09-09T23:04:07.496Z,8.80
2017-09-09T23:06:35.050Z,7.87
2017-09-09T23:09:02.557Z,8.67
2017-09-09T23:11:30.131Z,8.93
2017-09-09T23:13:57.674Z,7.23
2017-09-09T23:16:25.190Z,8.20
2017-09-09T23:18:52.734Z,7.63
2017-09-09T23:21:20.351Z,7.93
2017-09-09T23:23:47.854Z,7.50
2017-09-09T23:26:15.356Z,7.63
2017-09-09T23:28:43.664Z,7.10
2017-09-09T23:31:11.207Z,7.53
2017-09-09T23:33:38.784Z,7.47
2017-09-09T23:36:06.311Z,7.70
2017-09-09T23:38:33.830Z,7.60
2017-09-09T23:41:01.330Z,7.40
2017-09-09T23:43:29.628Z,6.93
2017-09-09T23:45:57.139Z,8.33
2017-09-09T23:48:25.472Z,7.37
2017-09-09T23:50:53.008Z,7.93
2017-09-09T23:53:20.595Z,7.83
2017-09-09T23:55:48.093Z,7.00
2017-09-09T23:58:15.616Z,7.73
